Terminal Aerodrome Forecast
Issued by NWS Riverton, WY

Home | Current Version | Previous Version | Text Only | Print | Product List | Glossary On
Versions: 1 2 3 4 5 6 7 8 9 10 11 12 13 14 15
023
FTUS45 KRIW 251120
TAFRIW
TAF
KRIW 251120Z 2512/2612 VRB05KT P6SM SKC
     FM252200 25008KT P6SM SCT250
     FM260100 02014G20KT P6SM FEW050 SCT090
     FM260600 03014G20KT P6SM VCSH SCT030 BKN080
     FM261100 05007KT P6SM SCT030=

USA.gov is the U.S. government's official web portal to all federal, state and local government web resources and services.